Time;durP1;ratioP1;P1;durP2;ratioP2;P2;SDS_P1;SDS_P2;PMS_P1;PMS_P2;Temp;Humidity;BMP_temperature;BMP_pressure;BME280_temperature;BME280_humidity;BME280_pressure;Samples;Min_cycle;Max_cycle;Signal;HPM_P1;HPM_P2
2021/12/12 00:02:30;;;;;;;13.35;8.23;;;3.00;71.90;;;;;;5062517;27;46358;-67
2021/12/12 00:04:58;;;;;;;12.57;8.80;;;3.10;72.10;;;;;;5087910;27;46362;-68
2021/12/12 00:07:29;;;;;;;13.57;9.18;;;3.10;72.00;;;;;;5071345;27;46400;-67
2021/12/12 00:10:03;;;;;;;12.50;8.65;;;3.10;72.00;;;;;;5071399;27;46329;-66
2021/12/12 00:12:39;;;;;;;13.55;9.20;;;3.10;72.00;;;;;;5075872;27;46448;-67
2021/12/12 00:15:07;;;;;;;13.50;8.68;;;3.00;71.90;;;;;;5079468;27;46336;-66
2021/12/12 00:17:32;;;;;;;12.65;8.45;;;3.00;71.90;;;;;;5073417;27;46540;-67
2021/12/12 00:19:58;;;;;;;15.50;9.80;;;3.10;72.00;;;;;;5080077;27;46515;-66
2021/12/12 00:22:27;;;;;;;16.15;9.52;;;3.10;72.00;;;;;;5075046;27;46588;-67
2021/12/12 00:24:53;;;;;;;13.95;8.90;;;3.10;72.00;;;;;;5085419;27;46374;-68
2021/12/12 00:27:21;;;;;;;15.63;9.15;;;3.10;72.00;;;;;;5073256;27;46376;-68
2021/12/12 00:29:47;;;;;;;13.55;9.40;;;3.10;72.00;;;;;;5075498;27;46333;-66
2021/12/12 00:32:17;;;;;;;14.18;8.65;;;3.10;72.00;;;;;;5069723;27;46420;-68
2021/12/12 00:34:49;;;;;;;14.10;9.38;;;3.20;72.10;;;;;;5058649;27;46428;-66
2021/12/12 00:37:16;;;;;;;15.38;9.23;;;3.20;72.10;;;;;;5071952;27;46174;-66
2021/12/12 00:39:48;;;;;;;13.55;8.65;;;3.20;72.10;;;;;;5074150;27;46558;-66
2021/12/12 00:42:19;;;;;;;16.67;11.00;;;3.20;72.10;;;;;;5074638;27;46443;-67
2021/12/12 00:44:48;;;;;;;15.95;10.15;;;3.20;72.20;;;;;;5079177;27;46307;-68
2021/12/12 00:47:14;;;;;;;14.95;9.98;;;3.20;72.10;;;;;;5078149;27;48094;-67
2021/12/12 00:49:42;;;;;;;17.07;9.93;;;3.30;72.20;;;;;;5078496;27;46550;-66
2021/12/12 00:52:10;;;;;;;14.60;10.13;;;3.30;72.20;;;;;;5080252;27;45930;-68
2021/12/12 00:54:37;;;;;;;24.30;9.90;;;3.30;72.20;;;;;;5072660;28;46288;-67
2021/12/12 00:57:06;;;;;;;14.40;9.65;;;3.30;72.20;;;;;;5073743;27;47258;-68
2021/12/12 00:59:32;;;;;;;14.43;9.20;;;3.30;72.20;;;;;;5067744;27;46397;-67
2021/12/12 01:01:59;;;;;;;15.50;9.82;;;3.30;72.20;;;;;;5068897;27;46370;-68
2021/12/12 01:04:36;;;;;;;15.00;10.25;;;3.20;72.10;;;;;;5066979;27;46391;-68
2021/12/12 01:07:06;;;;;;;14.32;10.15;;;3.20;72.10;;;;;;5070811;27;48045;-67
2021/12/12 01:09:38;;;;;;;13.10;9.35;;;3.20;72.10;;;;;;5072024;27;46329;-68
2021/12/12 01:12:07;;;;;;;14.02;9.93;;;3.20;72.10;;;;;;5084867;27;46358;-68
2021/12/12 01:14:41;;;;;;;15.32;10.65;;;3.20;72.10;;;;;;5072915;27;46574;-68
2021/12/12 01:17:26;;;;;;;16.33;9.45;;;3.20;72.10;;;;;;5071798;27;48072;-67
2021/12/12 01:20:02;;;;;;;16.10;9.20;;;3.20;72.10;;;;;;5069563;27;45877;-68
2021/12/12 01:22:35;;;;;;;15.35;9.55;;;3.20;72.10;;;;;;5081111;27;46387;-67
2021/12/12 01:25:10;;;;;;;16.75;10.55;;;3.10;72.00;;;;;;5068875;27;46507;-67
2021/12/12 01:27:36;;;;;;;14.43;9.18;;;3.10;72.00;;;;;;5074463;27;47688;-67
2021/12/12 01:30:07;;;;;;;15.50;10.10;;;3.10;72.20;;;;;;5089422;27;46413;-67
2021/12/12 01:32:33;;;;;;;14.48;8.57;;;3.10;72.00;;;;;;5066570;27;46441;-67
2021/12/12 01:35:00;;;;;;;15.95;10.30;;;3.10;72.00;;;;;;5090597;27;46574;-69
2021/12/12 01:40:00;;;;;;;14.25;9.77;;;3.10;72.00;;;;;;5087544;27;46478;-68
2021/12/12 01:42:34;;;;;;;15.25;9.68;;;3.20;72.10;;;;;;5058726;27;46377;-68
2021/12/12 01:45:29;;;;;;;13.65;9.27;;;3.20;72.10;;;;;;5081554;27;46260;-68
2021/12/12 01:48:02;;;;;;;16.65;9.82;;;3.20;72.10;;;;;;5072161;27;46449;-67
2021/12/12 01:50:31;;;;;;;15.10;9.32;;;3.30;72.30;;;;;;5081985;27;46480;-68
2021/12/12 01:52:59;;;;;;;14.88;9.50;;;3.30;72.20;;;;;;5071715;27;46462;-67
2021/12/12 01:55:36;;;;;;;15.02;9.48;;;3.20;72.10;;;;;;5077751;27;46388;-66
2021/12/12 01:58:08;;;;;;;15.13;9.55;;;3.20;72.10;;;;;;5082534;27;47889;-67
2021/12/12 02:00:44;;;;;;;15.40;8.88;;;3.30;72.20;;;;;;5070589;27;46411;-68
2021/12/12 02:03:15;;;;;;;14.73;9.82;;;3.30;72.20;;;;;;5068802;27;46211;-68
2021/12/12 02:05:42;;;;;;;16.25;9.68;;;3.30;72.20;;;;;;5075602;27;46529;-67
2021/12/12 02:08:12;;;;;;;16.02;10.43;;;3.30;72.20;;;;;;5072786;27;47220;-67
2021/12/12 02:10:43;;;;;;;15.57;8.85;;;3.30;72.20;;;;;;5088659;27;46472;-68
2021/12/12 02:13:11;;;;;;;13.20;8.88;;;3.30;72.20;;;;;;5070862;27;45877;-67
2021/12/12 02:15:38;;;;;;;13.73;9.20;;;3.30;72.20;;;;;;5076840;27;46384;-67
2021/12/12 02:18:12;;;;;;;16.27;9.57;;;3.20;72.10;;;;;;5074650;27;48807;-66
2021/12/12 02:20:47;;;;;;;14.25;9.13;;;3.20;72.10;;;;;;5087035;27;46337;-66
2021/12/12 02:37:09;;;;;;;18.40;11.02;;;3.40;72.30;;;;;;5082119;27;45815;-65
2021/12/12 02:39:37;;;;;;;13.20;9.45;;;3.40;72.30;;;;;;5067872;27;47877;-65
2021/12/12 02:42:07;;;;;;;14.38;9.93;;;3.50;73.60;;;;;;5083843;27;46503;-68
2021/12/12 02:44:36;;;;;;;15.23;9.48;;;3.50;72.40;;;;;;5075718;27;46407;-68
2021/12/12 02:47:13;;;;;;;15.80;9.77;;;3.50;72.30;;;;;;5074775;27;46452;-67
2021/12/12 02:49:55;;;;;;;14.05;9.13;;;3.50;72.30;;;;;;5073462;27;48575;-68
2021/12/12 02:52:29;;;;;;;14.57;9.57;;;3.50;72.30;;;;;;5068277;27;45797;-69
2021/12/12 02:54:57;;;;;;;13.63;8.65;;;3.50;72.30;;;;;;5051994;27;46415;-68
2021/12/12 02:57:23;;;;;;;12.35;8.70;;;3.50;72.30;;;;;;5067936;27;46578;-68
2021/12/12 02:59:51;;;;;;;17.42;9.82;;;3.40;72.30;;;;;;5057629;27;47996;-68
2021/12/12 03:02:24;;;;;;;13.65;8.60;;;3.40;72.30;;;;;;5054432;27;45900;-67
2021/12/12 03:04:53;;;;;;;13.73;9.75;;;3.30;72.30;;;;;;5064663;27;46345;-69
2021/12/12 03:07:19;;;;;;;16.05;9.85;;;3.30;72.20;;;;;;5073973;27;46516;-68
2021/12/12 03:09:51;;;;;;;13.87;9.20;;;3.40;72.30;;;;;;5071215;27;47275;-67
2021/12/12 03:12:20;;;;;;;14.70;9.38;;;3.40;72.30;;;;;;5087053;27;46594;-68
2021/12/12 03:14:47;;;;;;;12.90;9.57;;;3.40;72.30;;;;;;5075386;27;46389;-68
2021/12/12 03:17:19;;;;;;;13.90;9.25;;;3.40;72.30;;;;;;5071349;27;46644;-68
2021/12/12 03:19:52;;;;;;;15.63;10.20;;;3.40;72.30;;;;;;5064445;27;47708;-68
2021/12/12 03:22:18;;;;;;;13.95;9.07;;;3.50;72.30;;;;;;5065665;28;46487;-67
2021/12/12 03:24:45;;;;;;;21.15;11.60;;;3.50;72.40;;;;;;5072054;27;46393;-67
2021/12/12 03:27:11;;;;;;;14.68;9.43;;;3.50;72.30;;;;;;5071503;27;46377;-66
2021/12/12 03:29:38;;;;;;;14.65;9.50;;;3.50;72.30;;;;;;5078590;27;47818;-68
2021/12/12 03:32:09;;;;;;;15.80;9.93;;;3.60;72.40;;;;;;5078816;27;46302;-65
2021/12/12 03:34:37;;;;;;;13.52;8.93;;;3.60;72.40;;;;;;5090831;27;46240;-67
2021/12/12 03:37:06;;;;;;;14.57;9.35;;;3.50;72.30;;;;;;5070091;27;46286;-68
2021/12/12 03:39:35;;;;;;;14.60;8.25;;;3.50;72.30;;;;;;5096931;27;47587;-67
2021/12/12 03:42:08;;;;;;;14.40;9.43;;;3.50;72.30;;;;;;5076887;27;46496;-67
2021/12/12 03:44:37;;;;;;;14.15;9.27;;;3.40;73.40;;;;;;5073238;27;46405;-68
2021/12/12 03:47:10;;;;;;;14.87;9.30;;;3.30;72.50;;;;;;5078565;27;46663;-68
2021/12/12 03:49:37;;;;;;;13.25;8.80;;;3.20;72.90;;;;;;5083613;27;47848;-68
2021/12/12 03:52:06;;;;;;;14.02;9.25;;;3.10;73.30;;;;;;5057321;27;46402;-67
2021/12/12 03:54:32;;;;;;;14.68;9.40;;;2.90;73.90;;;;;;5074721;27;46299;-67
2021/12/12 03:56:57;;;;;;;12.88;8.88;;;2.70;74.50;;;;;;5072683;27;46378;-69
2021/12/12 03:59:24;;;;;;;16.50;9.10;;;2.50;76.20;;;;;;5078530;27;48093;-69
2021/12/12 04:01:52;;;;;;;14.63;8.85;;;2.30;75.40;;;;;;5075508;27;46440;-66
2021/12/12 04:04:36;;;;;;;15.18;9.00;;;2.10;75.80;;;;;;5087146;27;46416;-67
2021/12/12 04:07:15;;;;;;;14.52;8.57;;;1.90;76.10;;;;;;5073505;27;46275;-67
2021/12/12 04:09:41;;;;;;;12.52;7.70;;;1.70;76.30;;;;;;5091670;27;46434;-68
2021/12/12 04:12:10;;;;;;;14.05;8.70;;;1.60;76.60;;;;;;5075386;28;46520;-66
2021/12/12 04:14:36;;;;;;;12.52;7.95;;;1.50;76.40;;;;;;5069050;27;46416;-66
2021/12/12 04:17:13;;;;;;;13.98;7.65;;;1.30;76.50;;;;;;5056901;27;46461;-65
2021/12/12 04:19:40;;;;;;;12.70;8.43;;;1.20;76.50;;;;;;5079865;27;46323;-67
2021/12/12 04:22:06;;;;;;;16.15;9.20;;;1.20;76.60;;;;;;5090100;27;46528;-67
2021/12/12 04:24:35;;;;;;;13.48;8.32;;;1.00;76.50;;;;;;5072513;27;46436;-67
2021/12/12 04:27:03;;;;;;;13.80;8.57;;;1.00;76.50;;;;;;5097114;27;46441;-67
2021/12/12 04:29:35;;;;;;;13.85;9.15;;;0.90;76.60;;;;;;5074505;27;48356;-67
2021/12/12 04:32:07;;;;;;;16.35;9.88;;;0.90;76.50;;;;;;5070382;27;46879;-68
2021/12/12 04:34:37;;;;;;;16.88;10.05;;;1.00;76.00;;;;;;5056668;27;46456;-66
2021/12/12 04:37:04;;;;;;;17.00;9.93;;;1.20;75.80;;;;;;5076666;27;46499;-66
2021/12/12 04:39:38;;;;;;;17.60;9.05;;;1.20;75.30;;;;;;5071314;28;46523;-67
2021/12/12 04:42:13;;;;;;;13.65;9.30;;;1.30;75.10;;;;;;5094543;27;46444;-67
2021/12/12 04:44:41;;;;;;;15.27;8.82;;;1.30;74.80;;;;;;5069151;27;46369;-68
2021/12/12 04:50:05;;;;;;;15.55;9.68;;;1.20;75.10;;;;;;5087554;27;46256;-66
2021/12/12 04:52:40;;;;;;;14.90;9.27;;;1.20;75.10;;;;;;5073141;27;46629;-66
2021/12/12 04:55:15;;;;;;;15.48;8.68;;;1.20;75.20;;;;;;5071797;28;46412;-66
2021/12/12 04:57:48;;;;;;;13.90;8.48;;;1.20;75.20;;;;;;5084111;27;46507;-66
2021/12/12 05:00:27;;;;;;;15.80;8.85;;;1.40;75.10;;;;;;5089961;27;47063;-67
2021/12/12 05:03:31;;;;;;;14.30;8.75;;;1.40;74.60;;;;;;5082192;27;46715;-68
2021/12/12 05:06:03;;;;;;;14.05;8.80;;;1.60;74.30;;;;;;5067295;27;46449;-67
2021/12/12 05:09:03;;;;;;;15.23;8.18;;;1.70;74.00;;;;;;5070758;27;46421;-67
2021/12/12 05:11:56;;;;;;;15.70;9.02;;;1.80;73.70;;;;;;5068809;27;47889;-65
2021/12/12 05:14:26;;;;;;;12.90;8.10;;;1.90;73.50;;;;;;5071221;27;46690;-68
2021/12/12 05:17:13;;;;;;;12.70;7.93;;;1.90;73.20;;;;;;5086532;27;46737;-67
2021/12/12 05:19:46;;;;;;;13.57;7.70;;;2.00;73.20;;;;;;5071331;27;46447;-67
2021/12/12 05:22:19;;;;;;;10.73;7.28;;;2.00;73.20;;;;;;5072691;27;47713;-67
2021/12/12 05:24:50;;;;;;;14.57;8.05;;;2.00;73.30;;;;;;5057605;27;46478;-68
2021/12/12 05:27:20;;;;;;;12.63;7.43;;;1.90;73.40;;;;;;5081511;27;46462;-68
2021/12/12 05:30:09;;;;;;;13.00;7.55;;;1.90;73.80;;;;;;5070516;27;46525;-66
2021/12/12 05:32:35;;;;;;;11.13;7.18;;;1.80;74.00;;;;;;5067948;27;48056;-67
2021/12/12 05:35:03;;;;;;;9.88;6.30;;;1.90;74.30;;;;;;5069879;27;46409;-66
2021/12/12 05:37:29;;;;;;;9.82;5.63;;;1.90;74.10;;;;;;5082177;27;46332;-67
2021/12/12 05:40:00;;;;;;;9.15;6.20;;;2.00;74.10;;;;;;5066899;27;46446;-67
2021/12/12 05:42:27;;;;;;;9.02;5.75;;;2.00;74.00;;;;;;5079089;27;46366;-67
2021/12/12 05:44:54;;;;;;;12.95;6.07;;;2.00;74.00;;;;;;5068374;27;46321;-67
2021/12/12 05:47:20;;;;;;;9.30;5.82;;;2.10;73.80;;;;;;5073152;27;46394;-68
2021/12/12 05:49:46;;;;;;;13.63;6.20;;;2.20;73.40;;;;;;5067650;27;46397;-67
2021/12/12 05:52:16;;;;;;;9.40;6.30;;;2.30;73.30;;;;;;5064634;27;46561;-68
2021/12/12 05:54:44;;;;;;;7.22;5.30;;;2.30;73.30;;;;;;5082289;27;46378;-67
2021/12/12 05:57:12;;;;;;;10.65;6.40;;;2.30;73.30;;;;;;5073642;27;46352;-68
2021/12/12 05:59:39;;;;;;;8.25;5.90;;;2.40;73.20;;;;;;5068521;27;46321;-68
2021/12/12 06:02:06;;;;;;;9.25;6.00;;;2.50;72.50;;;;;;5070370;27;48236;-66
2021/12/12 06:04:34;;;;;;;12.30;6.47;;;2.60;72.00;;;;;;5075848;27;46401;-67
2021/12/12 06:07:06;;;;;;;10.07;5.75;;;2.60;71.90;;;;;;5080191;27;46395;-68
2021/12/12 06:09:34;;;;;;;12.48;5.95;;;2.70;71.80;;;;;;5085066;27;46461;-67
2021/12/12 06:12:02;;;;;;;9.23;6.05;;;2.60;72.30;;;;;;5069758;27;46457;-66
2021/12/12 06:14:31;;;;;;;7.63;5.43;;;2.60;72.40;;;;;;5080769;27;46358;-67
2021/12/12 06:16:59;;;;;;;8.05;6.00;;;2.60;72.40;;;;;;5065137;27;46339;-66
2021/12/12 06:19:25;;;;;;;9.98;5.80;;;2.60;72.50;;;;;;5073401;27;46349;-67
2021/12/12 06:21:57;;;;;;;9.13;6.10;;;2.60;72.30;;;;;;5084784;27;47635;-66
2021/12/12 06:24:25;;;;;;;9.05;5.93;;;2.60;71.90;;;;;;5079860;27;46469;-68
2021/12/12 06:26:51;;;;;;;10.88;6.18;;;2.70;71.70;;;;;;5071106;27;46381;-66
2021/12/12 06:29:17;;;;;;;8.75;5.65;;;2.80;71.70;;;;;;5067627;27;46418;-69
2021/12/12 06:31:48;;;;;;;8.90;5.97;;;2.80;71.70;;;;;;5070204;27;46823;-69
2021/12/12 06:34:14;;;;;;;9.65;5.63;;;2.80;71.80;;;;;;5081815;27;46376;-67
2021/12/12 06:36:41;;;;;;;8.90;6.03;;;2.70;71.70;;;;;;5082733;27;46420;-67
2021/12/12 06:39:09;;;;;;;8.50;6.20;;;2.70;71.70;;;;;;5066738;27;46593;-67
2021/12/12 06:41:36;;;;;;;9.75;6.90;;;2.70;71.70;;;;;;5067752;27;46413;-67
2021/12/12 06:44:07;;;;;;;9.10;6.10;;;2.70;71.70;;;;;;5069852;27;46397;-66
2021/12/12 06:46:34;;;;;;;7.45;5.20;;;2.80;71.80;;;;;;5069426;27;46352;-68
2021/12/12 06:49:04;;;;;;;7.30;5.15;;;2.90;71.80;;;;;;5074901;27;46472;-65
2021/12/12 06:51:34;;;;;;;28.70;20.23;;;2.90;71.80;;;;;;5092134;27;47217;-68
2021/12/12 06:54:00;;;;;;;12.35;8.50;;;2.90;71.90;;;;;;5068537;27;46544;-67
2021/12/12 06:56:28;;;;;;;12.30;7.55;;;2.90;71.80;;;;;;5064011;27;46405;-66
2021/12/12 06:58:57;;;;;;;11.85;8.13;;;3.00;71.90;;;;;;5069932;27;46606;-68
2021/12/12 07:01:28;;;;;;;8.32;6.05;;;3.00;71.90;;;;;;5068466;27;46383;-66
2021/12/12 07:03:55;;;;;;;11.10;7.25;;;3.10;72.00;;;;;;5084219;27;45799;-67
2021/12/12 07:06:24;;;;;;;12.65;7.32;;;3.10;72.00;;;;;;5064974;27;45830;-66
2021/12/12 07:08:52;;;;;;;11.52;7.45;;;3.20;71.70;;;;;;5057700;27;46559;-66
2021/12/12 07:11:20;;;;;;;9.00;6.05;;;3.20;71.40;;;;;;5063116;27;48576;-66
2021/12/12 07:13:47;;;;;;;6.65;5.32;;;3.30;71.40;;;;;;5070726;27;46361;-67
2021/12/12 07:16:13;;;;;;;7.38;4.90;;;3.20;71.70;;;;;;5083096;27;45831;-67
2021/12/12 07:18:40;;;;;;;7.35;5.20;;;3.20;72.00;;;;;;5065893;27;46424;-67
2021/12/12 07:21:10;;;;;;;10.23;5.70;;;3.10;72.00;;;;;;5066074;27;48015;-66
2021/12/12 07:23:39;;;;;;;7.93;5.28;;;3.10;72.10;;;;;;5071683;27;46404;-67
2021/12/12 07:26:06;;;;;;;10.00;6.60;;;2.90;71.80;;;;;;5064480;27;46260;-68
2021/12/12 07:28:33;;;;;;;9.35;5.78;;;2.70;71.70;;;;;;5062630;27;46477;-69
2021/12/12 07:31:04;;;;;;;7.80;6.05;;;2.50;72.40;;;;;;5065679;27;48127;-67
2021/12/12 07:33:31;;;;;;;11.90;7.60;;;2.30;72.90;;;;;;5067888;27;46519;-66
2021/12/12 07:35:59;;;;;;;11.20;8.65;;;2.20;73.30;;;;;;5052583;27;46416;-66
2021/12/12 07:38:27;;;;;;;13.32;8.48;;;2.10;73.70;;;;;;5068158;27;46411;-66
2021/12/12 07:40:56;;;;;;;9.65;6.68;;;2.00;73.90;;;;;;5067541;27;48272;-65
2021/12/12 07:43:23;;;;;;;8.95;6.45;;;1.90;74.00;;;;;;5065392;27;46501;-68
2021/12/12 07:45:48;;;;;;;9.18;6.28;;;1.80;74.10;;;;;;5066929;27;46378;-66
2021/12/12 07:48:15;;;;;;;18.27;8.73;;;1.80;74.10;;;;;;5087175;27;46501;-67
2021/12/12 07:50:43;;;;;;;16.95;8.98;;;1.80;74.10;;;;;;5064396;27;48158;-68
2021/12/12 07:53:09;;;;;;;20.10;10.30;;;1.80;73.90;;;;;;5081435;27;46511;-65
2021/12/12 07:55:35;;;;;;;16.13;9.38;;;1.80;73.60;;;;;;5057078;28;46333;-67
2021/12/12 07:58:09;;;;;;;14.90;8.15;;;1.80;73.50;;;;;;5069283;27;46346;-67
2021/12/12 08:00:36;;;;;;;17.05;9.20;;;1.80;73.40;;;;;;5072364;27;47755;-67
2021/12/12 08:03:04;;;;;;;12.52;8.68;;;1.80;73.30;;;;;;5080206;27;46373;-67
2021/12/12 08:05:32;;;;;;;12.52;7.95;;;1.80;73.30;;;;;;5068813;27;46239;-67
2021/12/12 08:08:05;;;;;;;14.13;9.18;;;1.90;73.40;;;;;;5067668;27;46378;-67
2021/12/12 08:10:31;;;;;;;15.93;9.68;;;1.90;73.20;;;;;;5084203;27;48935;-66
2021/12/12 08:12:57;;;;;;;18.08;10.93;;;1.90;73.20;;;;;;5091318;27;46442;-66
2021/12/12 08:15:24;;;;;;;18.70;11.57;;;1.90;73.10;;;;;;5069962;27;46449;-66
2021/12/12 08:17:51;;;;;;;18.23;12.23;;;2.00;73.10;;;;;;5073546;27;46505;-68
2021/12/12 08:20:20;;;;;;;18.70;11.05;;;2.20;72.80;;;;;;5090786;27;46395;-68
2021/12/12 08:22:48;;;;;;;23.60;12.65;;;2.40;72.10;;;;;;5075903;27;46167;-67
2021/12/12 08:25:16;;;;;;;21.58;13.40;;;2.70;71.70;;;;;;5075418;27;46409;-67
2021/12/12 08:27:42;;;;;;;17.90;12.23;;;3.00;71.20;;;;;;5088791;27;46026;-67
2021/12/12 08:30:11;;;;;;;13.68;9.15;;;3.20;70.90;;;;;;5096407;27;47306;-68
2021/12/12 08:32:42;;;;;;;14.48;9.25;;;3.30;70.60;;;;;;5089571;27;45847;-68
2021/12/12 08:35:12;;;;;;;14.30;9.68;;;3.40;70.70;;;;;;5073956;27;46333;-68
2021/12/12 08:37:40;;;;;;;14.45;8.05;;;3.40;70.60;;;;;;5069796;27;46410;-68
2021/12/12 08:40:07;;;;;;;12.52;8.15;;;3.50;70.90;;;;;;5070399;27;47077;-68
2021/12/12 08:42:33;;;;;;;11.85;8.23;;;3.40;71.20;;;;;;5070940;27;46482;-66
2021/12/12 08:45:00;;;;;;;12.07;7.55;;;3.10;72.00;;;;;;5071578;27;46272;-68
2021/12/12 08:47:28;;;;;;;9.95;6.90;;;2.90;71.80;;;;;;5073795;27;46363;-68
2021/12/12 08:49:54;;;;;;;10.90;7.15;;;2.80;71.90;;;;;;5066802;27;48880;-66
2021/12/12 08:52:31;;;;;;;12.48;9.13;;;2.80;73.70;;;;;;5075591;27;45842;-67
2021/12/12 08:54:57;;;;;;;13.38;7.78;;;2.70;72.60;;;;;;5069748;27;46566;-66
2021/12/12 08:57:39;;;;;;;12.73;8.32;;;2.70;72.60;;;;;;5072700;27;46491;-68
2021/12/12 09:00:12;;;;;;;14.35;7.43;;;2.70;72.40;;;;;;5072428;27;46407;-70
2021/12/12 09:02:38;;;;;;;12.32;7.53;;;2.70;72.40;;;;;;5086689;27;46613;-67
2021/12/12 09:05:13;;;;;;;11.27;8.20;;;2.80;72.50;;;;;;5074075;27;46596;-67
2021/12/12 09:07:44;;;;;;;11.27;7.47;;;2.80;72.40;;;;;;5068494;27;45988;-67
2021/12/12 09:10:13;;;;;;;13.02;7.93;;;2.90;72.10;;;;;;5065529;27;48155;-67
2021/12/12 09:12:43;;;;;;;13.05;8.20;;;3.10;72.00;;;;;;5091095;27;46427;-67
2021/12/12 09:15:44;;;;;;;9.55;6.88;;;3.40;72.30;;;;;;5071073;27;46664;-66
2021/12/12 09:18:16;;;;;;;10.98;7.10;;;3.70;71.20;;;;;;5077717;27;46391;-68
2021/12/12 09:21:07;;;;;;;11.55;7.10;;;3.70;71.10;;;;;;5073414;27;46540;-68
2021/12/12 09:23:39;;;;;;;9.48;6.63;;;3.60;71.10;;;;;;5066847;27;46425;-67
2021/12/12 09:26:11;;;;;;;10.52;7.30;;;3.60;71.40;;;;;;5088567;27;46477;-67
2021/12/12 09:28:47;;;;;;;10.45;7.18;;;3.60;71.70;;;;;;5054615;28;46578;-69
2021/12/12 09:31:24;;;;;;;10.60;6.60;;;3.60;71.70;;;;;;5069084;27;46502;-68
2021/12/12 09:34:02;;;;;;;11.00;7.38;;;3.70;71.60;;;;;;5051581;27;46438;-65
2021/12/12 09:36:51;;;;;;;12.80;7.30;;;3.70;71.30;;;;;;5066389;27;46378;-68
2021/12/12 09:39:25;;;;;;;10.50;7.18;;;3.70;71.30;;;;;;5068021;28;46297;-67
2021/12/12 09:42:27;;;;;;;11.90;7.00;;;3.80;71.30;;;;;;5084706;27;46365;-65
2021/12/12 09:45:20;;;;;;;10.30;7.07;;;3.80;71.10;;;;;;5069568;27;46572;-67
2021/12/12 09:48:27;;;;;;;11.27;7.18;;;3.80;71.30;;;;;;5089043;27;46418;-68
2021/12/12 09:51:30;;;;;;;10.50;7.13;;;3.90;71.40;;;;;;5069423;27;46045;-68
2021/12/12 09:54:18;;;;;;;10.23;6.78;;;3.90;71.20;;;;;;5066663;27;48884;-67
2021/12/12 09:56:50;;;;;;;10.65;8.45;;;4.00;71.40;;;;;;5080477;27;45802;-67
2021/12/12 09:59:54;;;;;;;10.38;7.05;;;4.00;71.10;;;;;;5059258;27;46431;-68
2021/12/12 10:02:38;;;;;;;11.30;7.10;;;4.10;70.90;;;;;;5076242;27;46432;-67
2021/12/12 10:05:13;;;;;;;13.00;8.90;;;4.10;70.90;;;;;;5088373;27;47308;-67
2021/12/12 10:08:06;;;;;;;8.85;7.20;;;4.20;70.90;;;;;;5086905;27;46345;-67
2021/12/12 10:10:36;;;;;;;9.48;6.72;;;4.10;70.90;;;;;;5068439;27;46405;-66
2021/12/12 10:13:23;;;;;;;10.07;6.60;;;4.20;70.90;;;;;;5071467;27;46580;-67
2021/12/12 10:15:56;;;;;;;11.00;6.60;;;4.10;70.90;;;;;;5055287;27;47855;-67
2021/12/12 10:18:47;;;;;;;12.25;9.35;;;4.20;70.90;;;;;;5084296;27;46517;-67
2021/12/12 10:21:45;;;;;;;13.03;8.40;;;4.20;70.70;;;;;;5061083;27;46579;-66
2021/12/12 10:24:34;;;;;;;11.97;8.10;;;4.30;70.50;;;;;;5052732;27;46748;-67
2021/12/12 10:27:17;;;;;;;10.80;7.30;;;4.40;70.60;;;;;;5066360;27;47078;-66
2021/12/12 10:30:18;;;;;;;11.90;7.82;;;4.40;70.30;;;;;;5074192;27;46549;-66
2021/12/12 10:32:56;;;;;;;18.73;10.20;;;4.40;70.20;;;;;;5055280;27;46627;-65
2021/12/12 10:35:32;;;;;;;11.93;7.60;;;4.40;70.70;;;;;;5072826;27;46477;-67
2021/12/12 10:38:04;;;;;;;9.80;7.10;;;4.50;69.90;;;;;;5073074;27;48042;-67
2021/12/12 10:40:37;;;;;;;12.82;8.50;;;4.40;71.20;;;;;;5082722;27;46412;-67
2021/12/12 10:43:09;;;;;;;23.63;12.40;;;4.50;70.00;;;;;;5076396;27;45829;-66
2021/12/12 10:45:46;;;;;;;18.23;9.43;;;4.60;69.90;;;;;;5075732;27;45910;-68
2021/12/12 10:48:16;;;;;;;14.97;8.03;;;4.70;69.50;;;;;;5066398;27;47789;-67
2021/12/12 10:51:04;;;;;;;9.52;6.78;;;4.70;69.50;;;;;;5089391;27;46388;-67
2021/12/12 10:53:44;;;;;;;13.80;7.85;;;4.80;69.40;;;;;;5074008;27;46403;-66
2021/12/12 10:56:37;;;;;;;11.70;7.13;;;4.90;69.20;;;;;;5085992;27;46343;-67
2021/12/12 10:59:15;;;;;;;11.90;7.60;;;5.10;68.50;;;;;;5076859;27;47888;-66
2021/12/12 11:01:46;;;;;;;10.50;6.47;;;5.30;67.60;;;;;;5073382;27;46365;-66
2021/12/12 11:04:19;;;;;;;10.87;7.03;;;5.60;66.70;;;;;;5076508;27;46345;-67
2021/12/12 11:06:59;;;;;;;10.00;7.00;;;5.90;65.90;;;;;;5061566;27;46440;-67
2021/12/12 11:09:31;;;;;;;10.87;6.63;;;6.30;65.00;;;;;;5075856;27;48726;-67
2021/12/12 11:12:20;;;;;;;9.90;6.17;;;6.50;64.50;;;;;;5064210;27;45844;-67
2021/12/12 11:15:07;;;;;;;9.67;7.20;;;6.60;63.50;;;;;;5066330;27;46465;-67
2021/12/12 11:17:50;;;;;;;9.83;6.53;;;6.80;63.20;;;;;;5078132;27;45810;-68
2021/12/12 11:20:20;;;;;;;10.13;6.90;;;7.10;62.90;;;;;;5087422;27;47986;-68
2021/12/12 11:22:51;;;;;;;8.73;6.40;;;7.10;62.50;;;;;;5089969;27;46338;-67
2021/12/12 11:25:38;;;;;;;8.80;5.90;;;7.10;62.70;;;;;;5068225;27;46443;-68
2021/12/12 11:28:31;;;;;;;9.30;6.90;;;7.10;62.20;;;;;;5065776;27;46008;-67
2021/12/12 11:31:12;;;;;;;10.47;6.87;;;7.10;61.90;;;;;;5057869;27;46515;-66
2021/12/12 11:33:42;;;;;;;10.25;7.28;;;7.10;61.80;;;;;;5070420;27;46000;-66
2021/12/12 11:36:13;;;;;;;9.50;6.90;;;7.10;60.20;;;;;;5055060;27;46310;-67
2021/12/12 11:39:00;;;;;;;9.60;6.50;;;7.10;60.10;;;;;;5066790;27;46635;-67
2021/12/12 11:41:39;;;;;;;10.60;7.63;;;7.10;60.40;;;;;;5070302;27;47256;-66
2021/12/12 11:44:17;;;;;;;9.13;6.90;;;7.10;60.70;;;;;;5055379;27;46346;-66
2021/12/12 11:47:10;;;;;;;12.30;6.43;;;7.00;60.90;;;;;;5087429;27;45695;-67
2021/12/12 11:49:54;;;;;;;9.30;6.87;;;7.00;60.30;;;;;;5067468;27;46311;-67
2021/12/12 11:52:44;;;;;;;7.20;5.93;;;7.00;60.60;;;;;;5072648;27;47987;-67
2021/12/12 11:55:20;;;;;;;9.13;6.50;;;6.90;60.80;;;;;;5051221;27;46485;-67
2021/12/12 11:57:53;;;;;;;10.60;7.40;;;6.90;60.70;;;;;;5084154;27;46414;-68
2021/12/12 12:00:30;;;;;;;9.50;6.80;;;6.80;61.10;;;;;;5069282;27;46400;-66
2021/12/12 12:03:24;;;;;;;8.60;6.60;;;6.70;62.50;;;;;;5068444;27;46491;-66
2021/12/12 12:05:56;;;;;;;9.93;6.70;;;6.70;61.30;;;;;;5070684;27;46537;-67
2021/12/12 12:08:30;;;;;;;9.13;7.10;;;6.70;62.70;;;;;;5080756;27;46424;-66
2021/12/12 12:11:15;;;;;;;9.17;6.30;;;6.70;61.30;;;;;;5077651;27;46377;-65
2021/12/12 12:14:04;;;;;;;11.90;7.10;;;6.80;61.20;;;;;;5078210;27;46293;-66
2021/12/12 12:16:30;;;;;;;8.50;6.37;;;6.70;60.50;;;;;;5070520;27;46724;-66
2021/12/12 12:18:59;;;;;;;8.77;6.50;;;6.70;61.00;;;;;;5074378;27;46321;-65
2021/12/12 12:21:30;;;;;;;9.10;6.00;;;6.80;60.80;;;;;;5084682;27;46477;-66
2021/12/12 12:24:37;;;;;;;8.53;6.40;;;6.90;60.70;;;;;;5065662;27;46488;-66
2021/12/12 12:27:30;;;;;;;10.67;6.77;;;6.80;60.80;;;;;;5080048;27;46511;-65
2021/12/12 12:30:30;;;;;;;10.13;6.30;;;6.90;60.80;;;;;;5069206;27;46280;-67
2021/12/12 12:33:34;;;;;;;8.80;5.80;;;7.00;60.60;;;;;;5069918;27;45896;-67
2021/12/12 12:36:37;;;;;;;7.32;5.75;;;7.20;60.10;;;;;;5084545;27;46389;-67
2021/12/12 12:39:30;;;;;;;7.30;5.43;;;7.30;58.50;;;;;;5066432;27;46460;-65
2021/12/12 12:42:11;;;;;;;7.00;5.40;;;7.30;58.60;;;;;;5071049;27;46362;-64
2021/12/12 12:45:14;;;;;;;8.37;5.07;;;7.20;58.80;;;;;;5072723;27;46271;-67
2021/12/12 12:48:17;;;;;;;10.23;5.47;;;7.20;59.00;;;;;;5072726;27;48123;-67
2021/12/12 12:51:12;;;;;;;6.50;4.60;;;7.10;59.20;;;;;;5088509;27;46431;-65
2021/12/12 12:54:05;;;;;;;7.67;4.80;;;7.20;59.00;;;;;;5076084;27;45791;-67
2021/12/12 12:57:09;;;;;;;8.60;5.63;;;7.10;59.30;;;;;;5075306;27;47123;-65
2021/12/12 12:59:55;;;;;;;6.90;5.13;;;7.00;59.40;;;;;;5071149;27;46494;-66
2021/12/12 13:02:44;;;;;;;6.60;4.80;;;6.90;59.60;;;;;;5078324;27;46494;-65
2021/12/12 13:05:41;;;;;;;8.00;5.23;;;6.90;59.60;;;;;;5029794;27;45842;-66
2021/12/12 13:08:44;;;;;;;6.78;4.65;;;7.10;59.10;;;;;;5064035;27;46282;-66
2021/12/12 13:11:11;;;;;;;6.57;4.60;;;7.00;58.40;;;;;;5070007;27;48658;-67
2021/12/12 13:14:07;;;;;;;7.53;5.50;;;6.90;58.80;;;;;;5067704;27;46480;-66
2021/12/12 13:16:39;;;;;;;11.30;6.37;;;6.90;57.30;;;;;;5073589;27;46395;-66
2021/12/12 13:19:13;;;;;;;10.10;5.87;;;6.90;57.70;;;;;;5057322;27;45995;-66
2021/12/12 13:21:38;;;;;;;16.30;7.43;;;6.90;57.70;;;;;;5081457;27;48462;-66
2021/12/12 13:24:43;;;;;;;20.70;8.57;;;6.90;57.90;;;;;;5060118;27;46325;-66
2021/12/12 13:27:35;;;;;;;36.33;14.77;;;6.90;57.70;;;;;;5058786;27;45835;-67
2021/12/12 13:30:26;;;;;;;17.60;7.83;;;6.90;57.70;;;;;;5070626;28;46343;-66
2021/12/12 13:33:01;;;;;;;42.93;17.63;;;6.90;57.70;;;;;;5087417;27;47977;-66
2021/12/12 13:36:01;;;;;;;12.83;6.57;;;6.80;58.20;;;;;;5075541;27;46417;-65
2021/12/12 13:38:52;;;;;;;6.73;4.30;;;6.60;58.20;;;;;;5058298;27;46508;-65
2021/12/12 13:41:47;;;;;;;5.40;3.57;;;6.60;59.80;;;;;;5079314;27;46719;-66
2021/12/12 13:44:55;;;;;;;5.17;3.47;;;6.50;58.70;;;;;;5065325;27;47928;-66
2021/12/12 13:47:50;;;;;;;4.87;3.70;;;6.40;58.80;;;;;;5084937;27;45958;-65